Cedar Grove, New Jersey
Current Conditions -  °F | °C
As of 9:53 AM on Wednesday 22 Oct 2014 (Local Time) from KCDW Reporting Station
Overcast Overcast  
Wind Chill: 52°   Ceiling: 1300
Heat Index: 52°   Visibility: 10mi
Dew Point: 49°   Wind: 5mph
Humidity: 89%   Direction: 30°NNE
Pressure: 29.95"   Gusts: NA
Location:  40.85°N, 74.23°W
Report Text: KCDW 221353Z 03004KT 10SM OVC013 11/09 A2995 RMK AO2 RAB1256E37 SLP146 P0000 T01110094
Loading
Personal Weather Stations






























Interactive Weather Map
Tropical Storm Tracking
New forecast layout! Learn more

10-Day Weather Forecast

Advertisements
Track Severe Weather on mobile